createdAt,value
2023-01-15T00:03:05.489Z,0.90
2023-01-15T00:08:07.623Z,0.80
2023-01-15T00:13:09.688Z,0.82
2023-01-15T00:18:11.920Z,0.82
2023-01-15T00:23:33.987Z,0.75
2023-01-15T00:28:36.105Z,0.90
2023-01-15T00:33:38.272Z,0.65
2023-01-15T00:38:40.327Z,0.95
2023-01-15T00:43:42.422Z,1.05
2023-01-15T00:48:44.837Z,0.60
2023-01-15T00:53:46.955Z,0.90
2023-01-15T00:58:49.134Z,0.70
2023-01-15T01:03:53.252Z,0.90
2023-01-15T01:08:58.145Z,0.85
2023-01-15T01:14:01.600Z,0.80
2023-01-15T01:19:17.508Z,0.90
2023-01-15T01:24:22.942Z,0.85
2023-01-15T01:29:25.622Z,0.63
2023-01-15T01:34:27.920Z,0.88
2023-01-15T01:39:30.042Z,0.75
2023-01-15T01:44:35.264Z,1.00
2023-01-15T01:49:40.384Z,1.00
2023-01-15T01:54:45.353Z,0.93
2023-01-15T01:59:48.824Z,0.57
2023-01-15T02:04:52.621Z,0.80
2023-01-15T02:09:55.011Z,0.73
2023-01-15T02:15:10.385Z,0.73
2023-01-15T02:20:12.710Z,0.93
2023-01-15T02:25:19.899Z,0.88
2023-01-15T02:30:34.555Z,0.60
2023-01-15T02:35:50.294Z,0.77
2023-01-15T02:40:57.409Z,0.73
2023-01-15T02:46:02.206Z,0.93
2023-01-15T02:51:17.907Z,0.77
2023-01-15T02:56:24.436Z,0.82
2023-01-15T03:01:34.881Z,0.70
2023-01-15T03:06:39.685Z,0.90
2023-01-15T03:11:55.451Z,1.05
2023-01-15T03:17:01.987Z,0.80
2023-01-15T03:22:09.748Z,0.93
2023-01-15T03:27:13.855Z,1.00
2023-01-15T03:32:21.498Z,0.90
2023-01-15T03:37:27.592Z,0.75
2023-01-15T03:43:18.170Z,0.70
2023-01-15T03:48:31.413Z,0.70
2023-01-15T03:53:46.445Z,0.85
2023-01-15T03:59:02.144Z,0.88
2023-01-15T04:04:20.909Z,1.05
2023-01-15T04:09:24.491Z,0.70
2023-01-15T04:14:31.233Z,1.13
2023-01-15T04:19:34.225Z,0.70
2023-01-15T04:24:40.743Z,0.68
2023-01-15T04:29:42.969Z,0.60
2023-01-15T04:34:45.119Z,0.82
2023-01-15T04:39:47.956Z,0.82
2023-01-15T04:44:50.121Z,0.82
2023-01-15T04:49:52.379Z,0.70
2023-01-15T04:54:57.632Z,0.98
2023-01-15T04:59:59.866Z,0.85
2023-01-15T05:05:02.055Z,0.90
2023-01-15T05:10:04.537Z,1.10
2023-01-15T05:15:07.288Z,0.77
2023-01-15T05:20:11.618Z,0.80
2023-01-15T05:25:13.712Z,1.02
2023-01-15T05:30:16.051Z,0.73
2023-01-15T05:35:18.150Z,0.73
2023-01-15T05:40:20.351Z,0.85
2023-01-15T05:45:22.660Z,0.90
2023-01-15T05:50:24.785Z,1.15
2023-01-15T05:55:26.880Z,1.10
2023-01-15T06:00:30.528Z,0.85
2023-01-15T06:05:32.805Z,0.90
2023-01-15T06:10:34.818Z,1.00
2023-01-15T06:15:36.991Z,0.88
2023-01-15T06:20:40.945Z,0.70
2023-01-15T06:25:43.136Z,0.75
2023-01-15T06:30:45.308Z,1.05
2023-01-15T06:35:47.375Z,1.05
2023-01-15T06:40:49.723Z,0.80
2023-01-15T06:46:10.728Z,0.93
2023-01-15T06:51:15.705Z,1.00
2023-01-15T06:56:17.897Z,0.90
2023-01-15T07:01:20.071Z,1.23
2023-01-15T07:06:22.347Z,1.00
2023-01-15T07:11:25.147Z,0.80
2023-01-15T07:16:27.995Z,1.00
2023-01-15T07:21:30.970Z,1.63
2023-01-15T07:26:33.380Z,1.20
2023-01-15T07:31:35.578Z,1.10
2023-01-15T07:36:37.987Z,1.08
2023-01-15T07:41:59.041Z,0.82
2023-01-15T07:47:20.150Z,0.82
2023-01-15T07:52:23.073Z,1.17
2023-01-15T07:57:25.379Z,0.90
2023-01-15T08:02:27.648Z,1.20
2023-01-15T08:07:29.909Z,1.00
2023-01-15T08:12:50.631Z,1.10
2023-01-15T08:17:53.214Z,1.10
2023-01-15T08:22:55.407Z,1.05
2023-01-15T08:28:01.485Z,1.25
2023-01-15T08:33:03.926Z,1.33
2023-01-15T08:38:07.314Z,0.98
2023-01-15T08:43:09.438Z,0.90
2023-01-15T08:48:11.554Z,1.10
2023-01-15T08:53:13.834Z,1.10
2023-01-15T08:58:16.684Z,1.20
2023-01-15T09:03:19.527Z,1.00
2023-01-15T09:08:21.670Z,1.10
2023-01-15T09:13:23.914Z,1.10
2023-01-15T09:18:26.105Z,1.15
2023-01-15T09:23:28.417Z,1.77
2023-01-15T09:28:30.760Z,0.90
2023-01-15T09:33:32.969Z,1.13
2023-01-15T09:38:35.524Z,1.17
2023-01-15T09:44:39.743Z,1.08
2023-01-15T09:49:51.705Z,1.05
2023-01-15T09:55:31.248Z,1.15
2023-01-15T10:00:41.863Z,1.50
2023-01-15T10:06:10.253Z,1.30
2023-01-15T10:11:15.240Z,1.30
2023-01-15T10:16:23.760Z,0.85
2023-01-15T10:21:48.364Z,1.33
2023-01-15T10:26:57.691Z,1.20
2023-01-15T10:32:32.482Z,1.10
2023-01-15T10:37:59.614Z,1.23
2023-01-15T10:43:04.802Z,1.25
2023-01-15T10:48:29.510Z,1.30
2023-01-15T10:54:05.488Z,1.38
2023-01-15T10:59:22.437Z,1.42
2023-01-15T11:04:27.191Z,1.40
2023-01-15T11:09:34.117Z,1.40
2023-01-15T11:15:02.436Z,1.77
2023-01-15T11:25:27.590Z,1.50
2023-01-15T11:30:37.659Z,1.10
2023-01-15T11:35:51.395Z,1.60
2023-01-15T11:40:55.669Z,1.55
2023-01-15T11:46:16.629Z,1.45
2023-01-15T11:51:20.250Z,1.92
2023-01-15T11:56:28.584Z,1.80
2023-01-15T12:01:34.979Z,1.92
2023-01-15T12:06:41.135Z,1.42
2023-01-15T12:11:59.743Z,1.85
2023-01-15T12:17:06.392Z,2.15
2023-01-15T12:22:34.708Z,1.33
2023-01-15T12:27:53.255Z,1.38
2023-01-15T12:33:08.301Z,1.60
2023-01-15T12:38:21.199Z,1.67
2023-01-15T12:43:46.270Z,1.40
2023-01-15T12:48:57.572Z,2.00
2023-01-15T12:54:13.732Z,1.40
2023-01-15T12:59:32.339Z,1.80
2023-01-15T13:04:52.363Z,1.80
2023-01-15T13:10:16.375Z,2.00
2023-01-15T13:15:22.110Z,1.63
2023-01-15T13:21:01.301Z,1.80
2023-01-15T13:26:03.419Z,2.03
2023-01-15T13:31:37.518Z,1.60
2023-01-15T13:42:11.541Z,1.70
2023-01-15T13:47:27.338Z,1.40
2023-01-15T13:52:35.712Z,1.48
2023-01-15T13:57:41.322Z,1.40
2023-01-15T14:02:55.930Z,1.60
2023-01-15T14:07:59.405Z,1.48
2023-01-15T14:13:45.694Z,1.60
2023-01-15T14:24:29.924Z,1.40
2023-01-15T14:29:53.772Z,1.52
2023-01-15T14:34:58.830Z,2.38
2023-01-15T14:40:04.271Z,1.63
2023-01-15T14:45:17.756Z,1.77
2023-01-15T14:50:29.978Z,1.75
2023-01-15T14:55:32.999Z,1.52
2023-01-15T15:00:44.183Z,1.50
2023-01-15T15:05:47.498Z,1.73
2023-01-15T15:10:55.051Z,1.73
2023-01-15T15:16:07.965Z,1.58
2023-01-15T15:21:22.439Z,1.50
2023-01-15T15:26:28.391Z,1.25
2023-01-15T15:31:37.545Z,1.40
2023-01-15T15:36:40.184Z,1.38
2023-01-15T15:42:04.787Z,1.30
2023-01-15T15:47:45.964Z,1.40
2023-01-15T15:52:52.169Z,1.13
2023-01-15T15:57:59.059Z,1.33
2023-01-15T16:03:08.008Z,1.20
2023-01-15T16:08:16.028Z,1.10
2023-01-15T16:13:40.445Z,1.20
2023-01-15T16:19:03.924Z,1.23
2023-01-15T16:24:24.250Z,1.17
2023-01-15T16:29:30.729Z,1.33
2023-01-15T16:34:35.002Z,1.17
2023-01-15T16:39:44.117Z,1.08
2023-01-15T16:44:54.600Z,0.80
2023-01-15T16:50:22.473Z,1.27
2023-01-15T16:55:40.465Z,1.02
2023-01-15T17:00:46.066Z,1.20
2023-01-15T17:05:55.102Z,0.73
2023-01-15T17:11:00.651Z,1.13
2023-01-15T17:16:07.414Z,0.73
2023-01-15T17:21:18.819Z,0.70
2023-01-15T17:26:24.684Z,1.17
2023-01-15T17:31:32.773Z,0.80
2023-01-15T17:36:35.005Z,0.80
2023-01-15T17:41:37.094Z,0.82
2023-01-15T17:46:39.188Z,1.00
2023-01-15T17:51:42.262Z,0.90
2023-01-15T17:57:02.707Z,0.90
2023-01-15T18:02:30.009Z,0.68
2023-01-15T18:07:37.712Z,0.82
2023-01-15T18:12:39.884Z,1.23
2023-01-15T18:17:41.956Z,0.70
2023-01-15T18:22:44.572Z,0.63
2023-01-15T18:27:47.997Z,0.63
2023-01-15T18:32:50.243Z,0.88
2023-01-15T18:37:52.377Z,0.70
2023-01-15T18:43:12.797Z,1.10
2023-01-15T18:48:14.989Z,0.77
2023-01-15T18:53:17.277Z,0.47
2023-01-15T18:58:19.408Z,0.60
2023-01-15T19:03:21.576Z,0.93
2023-01-15T19:08:23.718Z,0.63
2023-01-15T19:13:26.020Z,0.90
2023-01-15T19:18:43.301Z,0.55
2023-01-15T19:23:45.534Z,0.70
2023-01-15T19:28:47.681Z,0.80
2023-01-15T19:33:49.829Z,0.75
2023-01-15T19:38:51.907Z,0.80
2023-01-15T19:44:12.433Z,0.90
2023-01-15T19:49:41.288Z,0.60
2023-01-15T19:54:59.916Z,0.50
2023-01-15T20:00:02.109Z,0.85
2023-01-15T20:05:07.522Z,0.60
2023-01-15T20:10:13.160Z,0.70
2023-01-15T20:15:15.536Z,0.65
2023-01-15T20:20:17.763Z,0.60
2023-01-15T20:25:19.917Z,0.65
2023-01-15T20:30:23.661Z,0.60
2023-01-15T20:35:31.487Z,1.10
2023-01-15T20:40:33.720Z,0.88
2023-01-15T20:45:35.969Z,0.77
2023-01-15T20:51:01.819Z,1.58
2023-01-15T20:56:10.979Z,0.73
2023-01-15T21:01:13.346Z,1.00
2023-01-15T21:06:15.553Z,1.08
2023-01-15T21:11:18.447Z,0.95
2023-01-15T21:16:20.537Z,0.70
2023-01-15T21:21:22.906Z,0.90
2023-01-15T21:26:24.994Z,0.80
2023-01-15T21:31:27.322Z,0.80
2023-01-15T21:36:29.438Z,0.90
2023-01-15T21:41:49.829Z,1.02
2023-01-15T21:46:52.088Z,1.10
2023-01-15T21:51:54.167Z,1.00
2023-01-15T21:56:56.837Z,0.98
2023-01-15T22:02:00.350Z,1.00
2023-01-15T22:07:03.455Z,0.90
2023-01-15T22:12:06.076Z,0.95
2023-01-15T22:17:08.550Z,1.13
2023-01-15T22:22:11.692Z,1.05
2023-01-15T22:27:16.818Z,1.25
2023-01-15T22:32:18.933Z,1.42
2023-01-15T22:37:21.032Z,1.52
2023-01-15T22:42:27.857Z,1.17
2023-01-15T22:47:30.233Z,1.23
2023-01-15T22:52:32.404Z,1.40
2023-01-15T22:57:36.589Z,1.42
2023-01-15T23:03:05.016Z,1.20
2023-01-15T23:08:07.338Z,1.70
2023-01-15T23:13:09.493Z,1.20
2023-01-15T23:18:11.565Z,1.48
2023-01-15T23:23:13.722Z,1.35
2023-01-15T23:28:16.182Z,1.20
2023-01-15T23:33:18.271Z,1.40
2023-01-15T23:38:21.979Z,1.23
2023-01-15T23:43:42.644Z,1.13
2023-01-15T23:48:44.880Z,1.23
2023-01-15T23:53:47.500Z,1.42
2023-01-15T23:58:49.633Z,1.33
